createdAt,value
2023-05-05T00:01:25.270Z,71.12
2023-05-05T00:03:52.604Z,71.05
2023-05-05T00:06:19.665Z,71.18
2023-05-05T00:08:47.228Z,71.68
2023-05-05T00:11:13.887Z,71.17
2023-05-05T00:13:40.759Z,70.91
2023-05-05T00:16:07.736Z,70.77
2023-05-05T00:18:34.514Z,71.03
2023-05-05T00:21:01.652Z,70.80
2023-05-05T00:23:28.391Z,71.07
2023-05-05T00:25:55.077Z,71.23
2023-05-05T00:28:21.995Z,71.93
2023-05-05T00:30:48.803Z,72.38
2023-05-05T00:33:15.878Z,72.18
2023-05-05T00:35:42.753Z,71.74
2023-05-05T00:38:09.548Z,71.53
2023-05-05T00:40:37.903Z,71.28
2023-05-05T00:43:05.290Z,72.00
2023-05-05T00:45:32.326Z,71.57
2023-05-05T00:48:00.892Z,71.97
2023-05-05T00:50:30.050Z,72.05
2023-05-05T00:53:00.967Z,71.93
2023-05-05T00:55:28.560Z,72.63
2023-05-05T00:57:56.918Z,72.48
2023-05-05T01:00:23.817Z,72.16
2023-05-05T01:02:51.960Z,72.60
2023-05-05T01:05:20.251Z,72.36
2023-05-05T01:08:09.514Z,72.56
2023-05-05T01:10:41.614Z,72.97
2023-05-05T01:13:20.646Z,73.56
2023-05-05T01:15:53.556Z,73.67
2023-05-05T01:18:46.460Z,73.48
2023-05-05T01:21:19.093Z,73.49
2023-05-05T01:24:28.302Z,73.53
2023-05-05T01:27:17.170Z,73.32
2023-05-05T01:30:02.376Z,73.30
2023-05-05T01:32:33.847Z,72.84
2023-05-05T01:35:03.280Z,72.27
2023-05-05T01:37:46.112Z,73.10
2023-05-05T01:40:15.672Z,72.63
2023-05-05T01:42:44.322Z,72.54
2023-05-05T01:45:13.051Z,73.23
2023-05-05T01:47:42.108Z,73.74
2023-05-05T01:50:11.530Z,73.33
2023-05-05T01:52:40.161Z,74.05
2023-05-05T01:55:09.504Z,73.97
2023-05-05T01:57:38.584Z,72.26
2023-05-05T02:00:07.409Z,72.76
2023-05-05T02:02:45.248Z,73.54
2023-05-05T02:05:14.318Z,73.56
2023-05-05T02:07:41.776Z,73.35
2023-05-05T02:10:12.211Z,72.46
2023-05-05T02:12:40.948Z,72.92
2023-05-05T02:15:10.095Z,72.77
2023-05-05T02:17:37.671Z,73.58
2023-05-05T02:20:06.979Z,72.69
2023-05-05T02:22:34.043Z,72.99
2023-05-05T02:25:01.137Z,74.66
2023-05-05T02:27:30.502Z,74.93
2023-05-05T02:30:01.680Z,75.37
2023-05-05T02:32:35.154Z,74.78
2023-05-05T02:35:12.533Z,75.47
2023-05-05T02:37:45.224Z,75.46
2023-05-05T02:40:15.290Z,76.01
2023-05-05T02:42:46.965Z,75.45
2023-05-05T02:45:20.094Z,76.26
2023-05-05T02:47:48.744Z,76.61
2023-05-05T02:50:15.839Z,77.12
2023-05-05T02:52:51.499Z,76.25
2023-05-05T02:55:20.477Z,76.90
2023-05-05T02:57:58.911Z,76.57
2023-05-05T03:00:31.956Z,76.31
2023-05-05T03:03:17.828Z,76.76
2023-05-05T03:06:18.257Z,77.15
2023-05-05T03:09:20.803Z,77.19
2023-05-05T03:11:59.073Z,77.05
2023-05-05T03:14:30.063Z,77.62
2023-05-05T03:17:00.582Z,77.67
2023-05-05T03:19:29.662Z,77.99
2023-05-05T03:22:02.901Z,77.65
2023-05-05T03:24:30.229Z,78.05
2023-05-05T03:27:03.203Z,77.91
2023-05-05T03:29:34.689Z,78.47
2023-05-05T03:32:03.256Z,79.42
2023-05-05T03:34:30.227Z,79.17
2023-05-05T03:36:59.060Z,79.64
2023-05-05T03:39:25.999Z,80.06
2023-05-05T03:41:53.549Z,79.77
2023-05-05T03:44:22.071Z,79.83
2023-05-05T03:46:48.880Z,79.85
2023-05-05T03:49:16.800Z,79.61
2023-05-05T03:51:45.780Z,80.54
2023-05-05T03:54:12.714Z,80.14
2023-05-05T03:56:39.866Z,80.24
2023-05-05T03:59:06.902Z,80.06
2023-05-05T04:01:35.283Z,80.04
2023-05-05T04:04:02.241Z,80.13
2023-05-05T04:06:29.037Z,78.26
2023-05-05T04:08:55.914Z,79.32
2023-05-05T04:11:22.759Z,78.82
2023-05-05T04:13:50.482Z,79.00
2023-05-05T04:16:18.698Z,79.56
2023-05-05T04:18:46.121Z,79.65
2023-05-05T04:21:13.169Z,78.86
2023-05-05T04:23:40.779Z,78.31
2023-05-05T04:26:07.542Z,78.96
2023-05-05T04:28:34.407Z,79.45
2023-05-05T04:31:02.590Z,79.78
2023-05-05T04:33:31.274Z,79.42
2023-05-05T04:35:58.474Z,79.85
2023-05-05T04:38:25.922Z,79.77
2023-05-05T04:40:53.324Z,80.07
2023-05-05T04:43:20.251Z,80.39
2023-05-05T04:45:55.132Z,80.58
2023-05-05T04:48:25.067Z,80.67
2023-05-05T04:50:52.070Z,80.47
2023-05-05T04:53:18.787Z,81.03
2023-05-05T04:55:45.720Z,81.12
2023-05-05T04:58:12.456Z,80.72
2023-05-05T05:00:39.233Z,80.60
2023-05-05T05:03:06.474Z,80.57
2023-05-05T05:05:33.264Z,81.00
2023-05-05T05:08:00.047Z,81.22
2023-05-05T05:10:27.044Z,80.84
2023-05-05T05:12:53.881Z,80.85
2023-05-05T05:15:20.779Z,80.81
2023-05-05T05:17:49.875Z,80.95
2023-05-05T05:20:17.355Z,80.46
2023-05-05T05:22:44.067Z,80.24
2023-05-05T05:25:15.535Z,79.54
2023-05-05T05:27:43.023Z,79.43
2023-05-05T05:30:11.054Z,79.18
2023-05-05T05:32:37.908Z,79.02
2023-05-05T05:35:05.776Z,78.65
2023-05-05T05:37:35.245Z,77.96
2023-05-05T05:40:05.125Z,77.63
2023-05-05T05:42:33.846Z,77.91
2023-05-05T05:45:00.994Z,78.04
2023-05-05T05:47:28.226Z,76.98
2023-05-05T05:49:56.323Z,76.63
2023-05-05T05:52:23.219Z,76.63
2023-05-05T05:54:50.370Z,77.04
2023-05-05T05:57:17.197Z,76.39
2023-05-05T05:59:43.972Z,76.10
2023-05-05T06:02:11.013Z,76.70
2023-05-05T06:04:37.893Z,76.58
2023-05-05T06:07:04.790Z,76.81
2023-05-05T06:09:34.287Z,76.97
2023-05-05T06:12:03.732Z,76.84
2023-05-05T06:14:31.922Z,76.64
2023-05-05T06:16:58.735Z,75.96
2023-05-05T06:19:30.612Z,75.99
2023-05-05T06:21:57.466Z,75.67
2023-05-05T06:24:24.128Z,75.21
2023-05-05T06:26:50.927Z,74.96
2023-05-05T06:29:17.694Z,74.74
2023-05-05T06:31:44.474Z,75.76
2023-05-05T06:34:11.157Z,75.25
2023-05-05T06:36:37.893Z,74.92
2023-05-05T06:39:04.587Z,75.51
2023-05-05T06:41:31.314Z,74.12
2023-05-05T06:43:58.083Z,74.19
2023-05-05T06:46:25.270Z,74.01
2023-05-05T06:48:52.032Z,73.33
2023-05-05T06:51:18.930Z,73.42
2023-05-05T06:53:45.763Z,73.49
2023-05-05T06:56:12.571Z,73.72
2023-05-05T06:58:39.311Z,74.23
2023-05-05T07:01:06.153Z,74.17
2023-05-05T07:03:32.866Z,74.52
2023-05-05T07:05:59.667Z,73.71
2023-05-05T07:08:26.323Z,74.33
2023-05-05T07:10:53.129Z,75.32
2023-05-05T07:13:19.939Z,75.14
2023-05-05T07:15:46.776Z,74.77
2023-05-05T07:18:14.418Z,74.35
2023-05-05T07:20:41.371Z,73.48
2023-05-05T07:23:08.206Z,74.29
2023-05-05T07:25:35.011Z,75.25
2023-05-05T07:28:01.936Z,76.27
2023-05-05T07:30:28.735Z,76.20
2023-05-05T07:32:55.633Z,76.47
2023-05-05T07:35:23.182Z,77.65
2023-05-05T07:37:50.100Z,75.29
2023-05-05T07:40:16.917Z,75.29
2023-05-05T07:42:43.653Z,74.50
2023-05-05T07:45:11.567Z,74.44
2023-05-05T07:47:38.397Z,75.05
2023-05-05T07:50:08.474Z,77.06
2023-05-05T07:52:46.774Z,74.10
2023-05-05T07:55:18.509Z,74.32
2023-05-05T07:57:45.205Z,74.30
2023-05-05T08:00:13.550Z,73.85
2023-05-05T08:02:41.340Z,74.62
2023-05-05T08:05:09.264Z,76.42
2023-05-05T08:07:41.030Z,74.86
2023-05-05T08:10:12.156Z,74.58
2023-05-05T08:12:40.037Z,72.98
2023-05-05T08:15:07.795Z,73.15
2023-05-05T08:17:52.995Z,73.46
2023-05-05T08:20:20.674Z,73.52
2023-05-05T08:22:50.003Z,73.64
2023-05-05T08:25:16.833Z,71.84
2023-05-05T08:27:44.690Z,70.48
2023-05-05T08:30:13.226Z,71.67
2023-05-05T08:32:40.163Z,73.09
2023-05-05T08:35:07.724Z,73.18
2023-05-05T08:37:34.892Z,73.13
2023-05-05T08:40:01.767Z,71.62
2023-05-05T08:42:38.049Z,70.96
2023-05-05T08:45:06.795Z,72.93
2023-05-05T08:47:34.954Z,71.88
2023-05-05T08:50:02.342Z,72.40
2023-05-05T08:52:32.766Z,72.41
2023-05-05T08:55:13.560Z,73.27
2023-05-05T08:57:46.445Z,70.47
2023-05-05T09:00:14.150Z,72.48
2023-05-05T09:02:42.940Z,71.83
2023-05-05T09:05:10.557Z,71.27
2023-05-05T09:07:38.417Z,71.30
2023-05-05T09:10:05.886Z,70.33
2023-05-05T09:12:32.899Z,69.28
2023-05-05T09:15:03.579Z,68.80
2023-05-05T09:17:30.535Z,69.33
2023-05-05T09:20:04.767Z,70.88
2023-05-05T09:22:36.947Z,69.71
2023-05-05T09:25:05.171Z,69.09
2023-05-05T09:27:36.341Z,68.98
2023-05-05T09:30:04.898Z,68.50
2023-05-05T09:32:43.939Z,67.71
2023-05-05T09:35:10.938Z,69.81
2023-05-05T09:37:38.674Z,67.46
2023-05-05T09:40:08.718Z,69.01
2023-05-05T09:42:37.174Z,66.87
2023-05-05T09:45:24.234Z,68.23
2023-05-05T09:47:52.016Z,67.40
2023-05-05T09:50:22.422Z,67.72
2023-05-05T09:52:59.175Z,64.47
2023-05-05T09:55:26.052Z,64.21
2023-05-05T09:57:53.266Z,64.44
2023-05-05T10:00:20.741Z,67.71
2023-05-05T10:02:47.611Z,63.56
2023-05-05T10:05:19.100Z,64.41
2023-05-05T10:07:47.677Z,65.55
2023-05-05T10:10:16.794Z,62.37
2023-05-05T10:12:46.848Z,62.75
2023-05-05T10:15:15.487Z,63.71
2023-05-05T10:20:20.667Z,65.87
2023-05-05T10:22:59.869Z,64.05
2023-05-05T10:25:33.285Z,63.11
2023-05-05T10:28:01.467Z,64.43
2023-05-05T10:30:32.278Z,62.40
2023-05-05T10:35:52.740Z,63.77
2023-05-05T10:38:20.831Z,63.61
2023-05-05T10:40:48.857Z,65.27
2023-05-05T10:43:15.827Z,67.53
2023-05-05T10:45:43.327Z,64.92
2023-05-05T10:48:22.914Z,63.95
2023-05-05T10:50:54.071Z,63.50
2023-05-05T10:53:28.874Z,63.02
2023-05-05T10:56:21.635Z,65.64
2023-05-05T10:58:59.227Z,63.01
2023-05-05T11:01:36.311Z,62.58
2023-05-05T11:04:23.321Z,64.27
2023-05-05T11:07:08.790Z,65.44
2023-05-05T11:09:54.980Z,65.68
2023-05-05T11:12:22.044Z,64.54
2023-05-05T11:15:33.609Z,65.77
2023-05-05T11:18:05.792Z,63.66
2023-05-05T11:20:37.109Z,64.02
2023-05-05T11:23:03.975Z,64.29
2023-05-05T11:25:37.212Z,63.63
2023-05-05T11:28:14.567Z,63.66
2023-05-05T11:30:56.931Z,60.99
2023-05-05T11:33:29.492Z,62.57
2023-05-05T11:36:02.710Z,60.27
2023-05-05T11:38:52.422Z,61.18
2023-05-05T11:41:32.617Z,58.94
2023-05-05T11:44:16.650Z,59.13
2023-05-05T11:46:52.624Z,61.15
2023-05-05T11:49:31.572Z,60.27
2023-05-05T11:52:07.362Z,59.06
2023-05-05T11:54:50.139Z,59.08
2023-05-05T11:57:21.205Z,60.03
2023-05-05T12:00:03.612Z,60.40
2023-05-05T12:02:31.573Z,58.81
2023-05-05T12:04:59.869Z,60.60
2023-05-05T12:07:28.966Z,58.54
2023-05-05T12:09:56.087Z,60.59
2023-05-05T12:12:35.207Z,58.91
2023-05-05T12:15:02.332Z,59.12
2023-05-05T12:17:39.836Z,60.14
2023-05-05T12:20:07.648Z,59.34
2023-05-05T12:22:34.725Z,58.38
2023-05-05T12:25:04.218Z,57.74
2023-05-05T12:27:31.092Z,56.62
2023-05-05T12:30:11.743Z,58.84
2023-05-05T12:32:39.277Z,54.91
2023-05-05T12:35:08.071Z,55.67
2023-05-05T12:37:35.727Z,56.03
2023-05-05T12:40:03.656Z,53.35
2023-05-05T12:42:32.308Z,54.25
2023-05-05T12:44:59.092Z,53.28
2023-05-05T12:47:31.529Z,52.06
2023-05-05T12:50:00.325Z,50.70
2023-05-05T12:52:42.474Z,51.47
2023-05-05T12:55:10.510Z,51.84
2023-05-05T12:57:37.708Z,52.52
2023-05-05T13:00:18.162Z,53.18
2023-05-05T13:02:45.141Z,52.51
2023-05-05T13:05:12.034Z,53.89
2023-05-05T13:07:51.870Z,53.11
2023-05-05T13:10:18.839Z,51.19
2023-05-05T13:12:45.590Z,51.42
2023-05-05T13:15:13.883Z,53.07
2023-05-05T13:17:40.711Z,52.54
2023-05-05T13:20:10.051Z,52.67
2023-05-05T13:22:38.149Z,51.66
2023-05-05T13:25:05.291Z,51.11
2023-05-05T13:27:32.245Z,52.57
2023-05-05T13:29:59.124Z,51.32
2023-05-05T13:32:26.087Z,51.56
2023-05-05T13:34:53.119Z,50.93
2023-05-05T13:37:20.092Z,51.12
2023-05-05T13:39:46.819Z,53.65
2023-05-05T13:42:13.680Z,49.82
2023-05-05T13:44:40.573Z,52.20
2023-05-05T13:47:07.613Z,53.21
2023-05-05T13:49:35.815Z,52.95
2023-05-05T13:52:03.186Z,53.26
2023-05-05T13:54:29.893Z,54.49
2023-05-05T13:56:57.892Z,55.14
2023-05-05T13:59:25.899Z,53.43
2023-05-05T14:01:52.761Z,55.53
2023-05-05T14:04:19.515Z,56.59
2023-05-05T14:06:46.328Z,53.20
2023-05-05T14:09:13.277Z,53.75
2023-05-05T14:11:40.074Z,51.71
2023-05-05T14:14:07.022Z,54.50
2023-05-05T14:16:33.905Z,53.62
2023-05-05T14:19:01.900Z,55.19
2023-05-05T14:21:28.670Z,53.87
2023-05-05T14:23:55.439Z,52.25
2023-05-05T14:26:22.262Z,51.37
2023-05-05T14:28:50.504Z,49.24
2023-05-05T14:31:17.957Z,50.20
2023-05-05T14:33:44.722Z,51.61
2023-05-05T14:36:11.654Z,50.46
2023-05-05T14:38:38.493Z,52.93
2023-05-05T14:41:05.601Z,52.12
2023-05-05T14:43:32.698Z,51.93
2023-05-05T14:46:00.467Z,52.45
2023-05-05T14:48:27.879Z,53.80
2023-05-05T14:50:54.704Z,53.39
2023-05-05T14:53:21.447Z,54.76
2023-05-05T14:55:48.320Z,54.83
2023-05-05T14:58:15.177Z,53.35
2023-05-05T15:00:42.076Z,50.90
2023-05-05T15:03:08.980Z,51.74
2023-05-05T15:05:35.773Z,52.81
2023-05-05T15:08:02.523Z,52.50
2023-05-05T15:10:29.470Z,53.97
2023-05-05T15:12:56.547Z,53.60
2023-05-05T15:15:26.361Z,54.50
2023-05-05T15:17:53.184Z,54.05
2023-05-05T15:20:19.891Z,55.23
2023-05-05T15:22:49.033Z,50.48
2023-05-05T15:25:16.527Z,48.54
2023-05-05T15:28:08.499Z,53.18
2023-05-05T15:30:35.502Z,54.75
2023-05-05T15:33:02.307Z,55.13
2023-05-05T15:35:29.187Z,55.96
2023-05-05T15:37:55.923Z,53.88
2023-05-05T15:40:23.042Z,52.02
2023-05-05T15:42:52.709Z,51.88
2023-05-05T15:45:19.578Z,51.21
2023-05-05T15:47:46.414Z,52.24
2023-05-05T15:50:14.131Z,52.49
2023-05-05T15:52:40.792Z,51.23
2023-05-05T15:55:08.648Z,53.72
2023-05-05T15:57:35.745Z,53.06
2023-05-05T16:00:02.695Z,53.94
2023-05-05T16:02:34.448Z,54.14
2023-05-05T16:05:01.350Z,54.34
2023-05-05T16:07:28.114Z,55.56
2023-05-05T16:09:55.053Z,56.31
2023-05-05T16:12:21.812Z,57.45
2023-05-05T16:14:48.649Z,53.17
2023-05-05T16:17:15.367Z,54.25
2023-05-05T16:19:42.161Z,55.52
2023-05-05T16:22:09.084Z,53.57
2023-05-05T16:24:35.918Z,53.62
2023-05-05T16:27:02.727Z,54.33
2023-05-05T16:29:29.714Z,53.96
2023-05-05T16:31:56.479Z,54.60
2023-05-05T16:34:23.367Z,56.61
2023-05-05T16:36:50.079Z,56.44
2023-05-05T16:39:17.116Z,55.90
2023-05-05T16:41:43.815Z,57.42
2023-05-05T16:44:10.545Z,58.30
2023-05-05T16:46:37.658Z,57.31
2023-05-05T16:49:04.727Z,57.55
2023-05-05T16:51:31.638Z,57.70
2023-05-05T16:53:58.352Z,58.03
2023-05-05T16:56:25.113Z,57.83
2023-05-05T16:58:52.475Z,58.64
2023-05-05T17:01:19.203Z,58.70
2023-05-05T17:03:45.990Z,61.00
2023-05-05T17:06:13.119Z,61.31
2023-05-05T17:08:40.079Z,60.82
2023-05-05T17:11:06.848Z,60.96
2023-05-05T17:13:33.716Z,61.02
2023-05-05T17:16:00.504Z,60.47
2023-05-05T17:18:27.316Z,60.45
2023-05-05T17:20:54.076Z,60.23
2023-05-05T17:23:21.400Z,60.53
2023-05-05T17:25:48.706Z,61.52
2023-05-05T17:28:17.261Z,63.34
2023-05-05T17:30:44.128Z,65.48
2023-05-05T17:33:11.005Z,66.23
2023-05-05T17:35:38.009Z,63.96
2023-05-05T17:38:04.934Z,65.18
2023-05-05T17:40:31.666Z,65.81
2023-05-05T17:42:58.471Z,66.27
2023-05-05T17:45:25.216Z,66.25
2023-05-05T17:47:52.046Z,67.08
2023-05-05T17:50:18.943Z,67.13
2023-05-05T17:52:46.572Z,67.31
2023-05-05T17:55:13.618Z,66.65
2023-05-05T17:57:40.497Z,66.95
2023-05-05T18:00:08.946Z,68.44
2023-05-05T18:02:42.057Z,69.68
2023-05-05T18:05:10.049Z,69.74
2023-05-05T18:07:38.690Z,69.59
2023-05-05T18:10:07.267Z,69.49
2023-05-05T18:12:34.381Z,69.86
2023-05-05T18:15:01.706Z,69.87
2023-05-05T18:17:28.526Z,69.82
2023-05-05T18:19:55.296Z,70.04
2023-05-05T18:22:22.048Z,70.35
2023-05-05T18:24:48.923Z,70.29
2023-05-05T18:27:16.021Z,70.55
2023-05-05T18:29:42.830Z,70.70
2023-05-05T18:32:09.598Z,70.93
2023-05-05T18:34:36.347Z,71.41
2023-05-05T18:37:03.064Z,71.65
2023-05-05T18:39:30.376Z,72.12
2023-05-05T18:41:57.119Z,72.37
2023-05-05T18:44:23.988Z,72.61
2023-05-05T18:46:51.511Z,73.06
2023-05-05T18:49:18.309Z,73.35
2023-05-05T18:51:55.325Z,73.38
2023-05-05T18:54:32.599Z,73.16
2023-05-05T18:56:59.434Z,72.25
2023-05-05T18:59:26.361Z,72.50
2023-05-05T19:01:54.986Z,72.50
2023-05-05T19:04:31.429Z,72.49
2023-05-05T19:06:59.611Z,72.20
2023-05-05T19:09:26.461Z,72.34
2023-05-05T19:11:53.514Z,72.22
2023-05-05T19:14:20.365Z,72.10
2023-05-05T19:16:47.261Z,72.30
2023-05-05T19:19:14.418Z,72.40
2023-05-05T19:21:41.325Z,72.77
2023-05-05T19:24:09.426Z,72.28
2023-05-05T19:26:36.390Z,72.44
2023-05-05T19:29:03.358Z,72.58
2023-05-05T19:31:31.408Z,73.04
2023-05-05T19:34:01.275Z,72.96
2023-05-05T19:36:28.525Z,72.70
2023-05-05T19:38:56.275Z,73.42
2023-05-05T19:41:23.586Z,73.51
2023-05-05T19:43:50.456Z,73.63
2023-05-05T19:46:17.711Z,73.61
2023-05-05T19:48:44.652Z,73.93
2023-05-05T19:51:11.833Z,73.34
2023-05-05T19:53:40.233Z,73.68
2023-05-05T19:56:07.516Z,73.71
2023-05-05T19:59:01.627Z,74.05
2023-05-05T20:01:29.435Z,74.32
2023-05-05T20:03:57.398Z,74.24
2023-05-05T20:06:24.649Z,74.37
2023-05-05T20:08:52.346Z,74.62
2023-05-05T20:11:20.197Z,74.81
2023-05-05T20:13:47.900Z,74.26
2023-05-05T20:16:15.075Z,74.62
2023-05-05T20:18:41.878Z,74.94
2023-05-05T20:21:08.828Z,75.24
2023-05-05T20:23:36.710Z,75.18
2023-05-05T20:26:03.641Z,75.23
2023-05-05T20:28:31.776Z,75.27
2023-05-05T20:30:58.640Z,75.31
2023-05-05T20:33:25.457Z,75.28
2023-05-05T20:35:52.182Z,75.02
2023-05-05T20:38:18.938Z,75.19
2023-05-05T20:40:45.774Z,74.69
2023-05-05T20:43:12.739Z,75.04
2023-05-05T20:45:39.477Z,75.21
2023-05-05T20:48:09.810Z,75.06
2023-05-05T20:50:40.791Z,74.84
2023-05-05T20:53:09.225Z,74.66
2023-05-05T20:55:36.177Z,74.57
2023-05-05T20:58:04.213Z,73.84
2023-05-05T21:00:31.526Z,74.84
2023-05-05T21:02:58.424Z,75.54
2023-05-05T21:05:26.048Z,75.70
2023-05-05T21:07:53.817Z,76.08
2023-05-05T21:10:21.048Z,75.83
2023-05-05T21:12:47.921Z,76.27
2023-05-05T21:15:16.616Z,76.56
2023-05-05T21:17:43.465Z,76.58
2023-05-05T21:20:10.957Z,76.60
2023-05-05T21:22:37.927Z,76.39
2023-05-05T21:25:17.842Z,76.26
2023-05-05T21:27:45.021Z,75.74
2023-05-05T21:30:12.381Z,75.63
2023-05-05T21:32:40.775Z,74.89
2023-05-05T21:35:08.719Z,74.82
2023-05-05T21:37:38.106Z,74.97
2023-05-05T21:40:06.454Z,74.75
2023-05-05T21:42:33.273Z,74.18
2023-05-05T21:45:00.007Z,74.85
2023-05-05T21:47:27.405Z,75.28
2023-05-05T21:49:54.058Z,75.48
2023-05-05T21:52:20.928Z,75.21
2023-05-05T21:54:47.825Z,75.58
2023-05-05T21:57:14.668Z,76.29
2023-05-05T21:59:41.417Z,76.17
2023-05-05T22:02:08.368Z,75.61
2023-05-05T22:04:35.169Z,75.13
2023-05-05T22:07:02.175Z,75.67
2023-05-05T22:09:28.967Z,75.64
2023-05-05T22:11:55.824Z,75.33
2023-05-05T22:14:22.670Z,74.51
2023-05-05T22:16:49.584Z,74.35
2023-05-05T22:19:16.383Z,74.55
2023-05-05T22:21:43.525Z,75.18
2023-05-05T22:24:10.345Z,74.49
2023-05-05T22:26:39.811Z,74.77
2023-05-05T22:29:06.556Z,74.49
2023-05-05T22:31:33.342Z,74.86
2023-05-05T22:34:00.189Z,75.25
2023-05-05T22:36:27.576Z,75.82
2023-05-05T22:38:54.479Z,76.56
2023-05-05T22:41:21.216Z,76.33
2023-05-05T22:43:49.256Z,76.40
2023-05-05T22:46:15.981Z,77.02
2023-05-05T22:48:43.535Z,77.91
2023-05-05T22:51:13.528Z,77.88
2023-05-05T22:53:40.526Z,77.81
2023-05-05T22:56:07.417Z,77.45
2023-05-05T22:58:34.233Z,76.65
2023-05-05T23:01:00.956Z,76.47
2023-05-05T23:03:27.679Z,76.55
2023-05-05T23:05:54.370Z,76.71
2023-05-05T23:08:21.760Z,77.01
2023-05-05T23:10:48.498Z,76.70
2023-05-05T23:13:15.243Z,76.84
2023-05-05T23:15:42.096Z,77.17
2023-05-05T23:18:09.113Z,76.84
2023-05-05T23:20:35.918Z,77.06
2023-05-05T23:23:02.790Z,77.16
2023-05-05T23:25:29.460Z,77.45
2023-05-05T23:27:56.348Z,77.29
2023-05-05T23:30:25.549Z,78.62
2023-05-05T23:32:52.552Z,79.13
2023-05-05T23:35:19.408Z,79.21
2023-05-05T23:37:46.182Z,78.99
2023-05-05T23:40:12.991Z,79.06
2023-05-05T23:42:39.775Z,79.14
2023-05-05T23:45:07.192Z,79.21
2023-05-05T23:47:34.126Z,79.14
2023-05-05T23:50:00.940Z,79.91
2023-05-05T23:52:27.917Z,79.49
2023-05-05T23:57:22.137Z,79.63
2023-05-05T23:59:48.950Z,79.34
